Orangeburg, SC

6:38 PM EST on February 08, 2016 (GMT -0500)
Fox Knoll Farm | | Change Station
CLOSE
Current Station
Personal Weather Station
Location: Orangeburg, SC
Elevation: 279 ft
Nearby Weather Stations

Elev 279 ft 33.60 °N, 80.87 °W | Updated 2 seconds ago

Mostly Cloudy
Mostly Cloudy
43.5 °F
Feels Like 44 °F
N
0.2
Wind Variable Wind from WNW
Gusts 2.5 mph

Today
High -- | Low -- °F
--% Chance of Precip.
Yesterday
High -- | Low -- °F
Precip. -- in
Pressure 29.74 in
Visibility 10.0 miles
Clouds Few 6000 ft
Scattered Clouds 10000 ft
Windchill 44 °F
Dew Point 34 °F
Humidity 69%
Rainfall 0.04 in
Snow Depth Not available.
7:14 AM 6:00 PM
New Moon, 0% visible
METAR KOGB 082253Z AUTO 24005KT 10SM FEW060 SCT100 08/05 A2973 RMK AO2 RAB2154E29 SLP069 P0002 T00830050
Pressure 29.74 in
Visibility 10.0 miles
Clouds Few 6000 ft
Scattered Clouds 10000 ft
Windchill 44 °F
Dew Point 34 °F
Humidity 69%
Rainfall 0.04 in
Snow Depth Not available.
7:14 AM 6:00 PM
New Moon, 0% visible
METAR KOGB 082253Z AUTO 24005KT 10SM FEW060 SCT100 08/05 A2973 RMK AO2 RAB2154E29 SLP069 P0002 T00830050

10-Day Weather Forecast

Almanac

Astronomy

Feb. 08, 2016 Rise Set
Actual Time
Civil Twilight
Nautical Twilight
Astronomical Twilight
Moon
Length of Visible Light
Length of Day
Tomorrow will be .
, % of the Moon is Illuminated

Today's Extremes

State Highs State Lows

Community

WunderPhotos

Upload Photos

1,891,525 photos uploaded!

WunderBlog® & News

Nearby

Air Quality

  Air Quality AQ Index Pollutant
Not available.

Snow Depth

Station Depth Elevation

Earthquake Activity

City Distance Mag. Time & Date
Minimum magnitude displayed is 2.5.

Coastal Water Temperatures

Place Temperature

Stations

Nearby Weather Stations

Station Location Temp. Windchill Dew Point Humidity Wind Precip. Elev Updated Type
                   

Watches & Warnings

There are currently no watches in effect.